Skip Navigation LinksHome page > Weather > Current weather Skip Navigation Links

Current Weather

Ronald Reagan Washington National, Washington

For information only: do not use for flight planning or navigation.
Latest weather
Observation time Tuesday, September 17, 2019 2:52 AM EDT
Local time Tuesday, September 17, 2019 3:05 AM EDT
Flight conditions Visual Meteorological Conditions
Winds
Wind direction Northeast (50°)
Wind speed 10 mph
Visibility 10 mi.
Sky condition
Ceiling 12,000 ft. broken clouds
Cloud layer few clouds 8,500 ft.
Cloud layer broken clouds 12,000 ft.
Cloud layer overcast 25,000 ft.
Temperature 76°F
Dewpoint 65°F
Altimeter 30.01 in.Hg
Derived measurements
Relative humidity 69%
Density altitude 1291 ft.
Sea-level pressure 30.01 in.Hg
Remarks
Automated weather observing station with precipitation discriminator.
METAR KDCA 170652Z 05009KT 10SM FEW085 BKN120 OVC250 24/18 A3001 RMK AO2 SLP163 T02440183

Settings

Location code

InnerDrive.Weather 4.0.6770.0 Release CLR 4.0.30319.42000
Copyright ©2018 Inner Drive Technology. All rights reserved. Portions Copyright ©1986-2018 David Braverman.

Find weather

Site navigation


Skip Navigation Links

Place info

Page info

PayPal - The safer, easier way to pay online!

Return home.

Copyright ©2019 Inner Drive Technology. Purveyors of fine, hand-crafted computer software. Page printed 2019-09-17T07:05:32 UTC.